Main page
METAR-TAF:

METAR-TAF

Airports :

Vladivostok, Russia

Vladivostok International Airport

latitude: 43-07N, longitude: 131-56E, elevation: 184 m

Current weather observation

The report was made 12 minutes ago, at 19:00 UTC
Wind 2 kt from the North
Temperature 2°C
Humidity 60%
Pressure 1020 hPa
Visibility 10 km or more

METAR: UHWW 231900Z 01001MPS 9999 NSC 02/M05 Q1020 R25L/0///70 NOSIG RMK QFE764

Time: 05:12 (19:12 UTC)

Forecast

The report was made 2 hours and 12 minutes ago, at 17:00 UTC
Forecast valid from 23 at 18 UTC to 24 at 18 UTC
Wind 6 kt from the East/Northeast
Visibility 10 km or more
Scattered clouds at a height of 5000 ft
Temporary
from 23 at 21 UTC to 23 at 24 UTC
Wind 6 kt from the East/Southeast
Visibility: 4000 m
Scattered clouds at a height of 2000 ft
haze
From 24 at 0000 UTC
Wind 6 kt from the North
Visibility 10 km or more
Scattered clouds at a height of 2000 ft

TAF: UHWW 231700Z 2318/2418 06003MPS 9999 SCT050 TEMPO 2321/2324 12003MPS 4000 HZ SCT020 FM240000 01003MPS 9999 SCT020

Weather observations and forecasts of more than 4000 airports (METAR and TAF reports).

The available stations are represented by yellow and red dots on the map.

Hover mouse over dot to see the name of the station.

Then click to see weather observations and forecasts.

To change the map : click on the green buttons with a black cross to zoom in, on the green button with a dash to zoom out, or on the green arrows for adjacent maps.


METAR-TAF: